sensor_id;sensor_type;location;lat;lon;timestamp;temperature;humidity
22734;DHT22;11534;51.994;5.692;2023-05-16T00:00:15;10.80;99.90
22734;DHT22;11534;51.994;5.692;2023-05-16T00:02:41;10.80;99.90
22734;DHT22;11534;51.994;5.692;2023-05-16T00:05:06;10.90;99.90
22734;DHT22;11534;51.994;5.692;2023-05-16T00:07:33;10.90;99.90
22734;DHT22;11534;51.994;5.692;2023-05-16T00:09:59;10.90;99.90
22734;DHT22;11534;51.994;5.692;2023-05-16T00:12:25;10.80;99.90
22734;DHT22;11534;51.994;5.692;2023-05-16T00:14:51;10.80;99.90
22734;DHT22;11534;51.994;5.692;2023-05-16T00:17:17;10.80;99.90
22734;DHT22;11534;51.994;5.692;2023-05-16T00:19:45;10.70;99.90
22734;DHT22;11534;51.994;5.692;2023-05-16T00:22:14;10.70;99.90
22734;DHT22;11534;51.994;5.692;2023-05-16T00:24:40;10.80;99.90
22734;DHT22;11534;51.994;5.692;2023-05-16T00:27:06;10.80;99.90
22734;DHT22;11534;51.994;5.692;2023-05-16T00:29:31;10.70;99.90
22734;DHT22;11534;51.994;5.692;2023-05-16T00:31:57;10.70;99.90
22734;DHT22;11534;51.994;5.692;2023-05-16T00:34:22;10.80;99.90
22734;DHT22;11534;51.994;5.692;2023-05-16T00:36:52;10.80;99.90
22734;DHT22;11534;51.994;5.692;2023-05-16T00:39:18;10.70;99.90
22734;DHT22;11534;51.994;5.692;2023-05-16T00:41:44;10.70;99.90
22734;DHT22;11534;51.994;5.692;2023-05-16T00:44:10;10.60;99.90
22734;DHT22;11534;51.994;5.692;2023-05-16T00:46:36;10.60;99.90
22734;DHT22;11534;51.994;5.692;2023-05-16T00:49:02;10.60;99.90
22734;DHT22;11534;51.994;5.692;2023-05-16T00:51:29;10.60;99.90
22734;DHT22;11534;51.994;5.692;2023-05-16T00:53:55;10.60;99.90
22734;DHT22;11534;51.994;5.692;2023-05-16T00:56:21;10.60;99.90
22734;DHT22;11534;51.994;5.692;2023-05-16T00:58:47;10.60;99.90
22734;DHT22;11534;51.994;5.692;2023-05-16T01:01:13;10.60;99.90
22734;DHT22;11534;51.994;5.692;2023-05-16T01:03:39;10.60;99.90
22734;DHT22;11534;51.994;5.692;2023-05-16T01:06:07;10.50;99.90
22734;DHT22;11534;51.994;5.692;2023-05-16T01:08:32;10.50;99.90
22734;DHT22;11534;51.994;5.692;2023-05-16T01:11:11;10.40;99.90
22734;DHT22;11534;51.994;5.692;2023-05-16T01:14:11;10.30;99.90
22734;DHT22;11534;51.994;5.692;2023-05-16T01:16:49;10.30;99.90
22734;DHT22;11534;51.994;5.692;2023-05-16T01:20:12;10.30;99.90
22734;DHT22;11534;51.994;5.692;2023-05-16T01:22:51;10.30;99.90
22734;DHT22;11534;51.994;5.692;2023-05-16T01:28:05;10.30;99.90
22734;DHT22;11534;51.994;5.692;2023-05-16T01:30:38;10.30;99.90
22734;DHT22;11534;51.994;5.692;2023-05-16T01:33:03;10.20;99.90
22734;DHT22;11534;51.994;5.692;2023-05-16T01:35:29;10.00;99.90
22734;DHT22;11534;51.994;5.692;2023-05-16T01:38:43;10.00;99.90
22734;DHT22;11534;51.994;5.692;2023-05-16T01:40:58;10.00;99.90
22734;DHT22;11534;51.994;5.692;2023-05-16T01:43:36;10.10;99.90
22734;DHT22;11534;51.994;5.692;2023-05-16T01:46:19;10.00;99.90
22734;DHT22;11534;51.994;5.692;2023-05-16T01:49:01;10.00;99.90
22734;DHT22;11534;51.994;5.692;2023-05-16T01:51:31;10.00;99.90
22734;DHT22;11534;51.994;5.692;2023-05-16T01:54:05;10.00;99.90
22734;DHT22;11534;51.994;5.692;2023-05-16T01:56:31;10.00;99.90
22734;DHT22;11534;51.994;5.692;2023-05-16T02:09:10;10.10;99.90
22734;DHT22;11534;51.994;5.692;2023-05-16T02:11:36;10.00;99.90
22734;DHT22;11534;51.994;5.692;2023-05-16T02:14:02;10.00;99.90
22734;DHT22;11534;51.994;5.692;2023-05-16T02:16:29;10.00;99.90
22734;DHT22;11534;51.994;5.692;2023-05-16T02:18:55;10.00;99.90
22734;DHT22;11534;51.994;5.692;2023-05-16T02:21:20;10.10;99.90
22734;DHT22;11534;51.994;5.692;2023-05-16T02:23:46;10.10;99.90
22734;DHT22;11534;51.994;5.692;2023-05-16T02:26:12;10.20;99.90
22734;DHT22;11534;51.994;5.692;2023-05-16T02:28:37;10.10;99.90
22734;DHT22;11534;51.994;5.692;2023-05-16T02:31:03;10.00;99.90
22734;DHT22;11534;51.994;5.692;2023-05-16T02:33:29;10.10;99.90
22734;DHT22;11534;51.994;5.692;2023-05-16T02:35:55;10.10;99.90
22734;DHT22;11534;51.994;5.692;2023-05-16T02:38:20;10.10;99.90
22734;DHT22;11534;51.994;5.692;2023-05-16T02:40:47;10.10;99.90
22734;DHT22;11534;51.994;5.692;2023-05-16T02:43:12;10.10;99.90
22734;DHT22;11534;51.994;5.692;2023-05-16T02:45:38;10.10;99.90
22734;DHT22;11534;51.994;5.692;2023-05-16T02:48:04;10.20;99.90
22734;DHT22;11534;51.994;5.692;2023-05-16T02:50:30;10.20;99.90
22734;DHT22;11534;51.994;5.692;2023-05-16T02:52:56;10.20;99.90
22734;DHT22;11534;51.994;5.692;2023-05-16T02:55:24;10.20;99.90
22734;DHT22;11534;51.994;5.692;2023-05-16T02:57:50;10.10;99.90
22734;DHT22;11534;51.994;5.692;2023-05-16T03:00:16;10.10;99.90
22734;DHT22;11534;51.994;5.692;2023-05-16T03:02:43;10.10;99.90
22734;DHT22;11534;51.994;5.692;2023-05-16T03:05:10;10.10;99.90
22734;DHT22;11534;51.994;5.692;2023-05-16T03:07:36;10.10;99.90
22734;DHT22;11534;51.994;5.692;2023-05-16T03:10:02;10.20;99.90
22734;DHT22;11534;51.994;5.692;2023-05-16T03:12:28;10.20;99.90
22734;DHT22;11534;51.994;5.692;2023-05-16T03:14:54;10.20;99.90
22734;DHT22;11534;51.994;5.692;2023-05-16T03:17:19;10.20;99.90
22734;DHT22;11534;51.994;5.692;2023-05-16T03:19:45;10.20;99.90
22734;DHT22;11534;51.994;5.692;2023-05-16T03:22:11;10.20;99.90
22734;DHT22;11534;51.994;5.692;2023-05-16T03:24:36;10.20;99.90
22734;DHT22;11534;51.994;5.692;2023-05-16T03:27:02;10.10;99.90
22734;DHT22;11534;51.994;5.692;2023-05-16T03:29:29;10.10;99.90
22734;DHT22;11534;51.994;5.692;2023-05-16T03:31:55;10.00;99.90
22734;DHT22;11534;51.994;5.692;2023-05-16T03:34:21;10.00;99.90
22734;DHT22;11534;51.994;5.692;2023-05-16T03:36:49;10.00;99.90
22734;DHT22;11534;51.994;5.692;2023-05-16T03:39:15;10.00;99.90
22734;DHT22;11534;51.994;5.692;2023-05-16T03:41:41;9.90;99.90
22734;DHT22;11534;51.994;5.692;2023-05-16T03:44:07;9.80;99.90
22734;DHT22;11534;51.994;5.692;2023-05-16T03:46:33;9.80;99.90
22734;DHT22;11534;51.994;5.692;2023-05-16T03:48:59;9.80;99.90
22734;DHT22;11534;51.994;5.692;2023-05-16T03:51:24;9.80;99.90
22734;DHT22;11534;51.994;5.692;2023-05-16T03:53:50;9.80;99.90
22734;DHT22;11534;51.994;5.692;2023-05-16T03:56:16;9.80;99.90
22734;DHT22;11534;51.994;5.692;2023-05-16T03:58:41;9.70;99.90
22734;DHT22;11534;51.994;5.692;2023-05-16T04:01:07;9.70;99.90
22734;DHT22;11534;51.994;5.692;2023-05-16T04:03:33;9.60;99.90
22734;DHT22;11534;51.994;5.692;2023-05-16T04:05:58;9.60;99.90
22734;DHT22;11534;51.994;5.692;2023-05-16T04:08:24;9.60;99.90
22734;DHT22;11534;51.994;5.692;2023-05-16T04:10:50;9.60;99.90
22734;DHT22;11534;51.994;5.692;2023-05-16T04:13:16;9.50;99.90
22734;DHT22;11534;51.994;5.692;2023-05-16T04:15:42;9.50;99.90
22734;DHT22;11534;51.994;5.692;2023-05-16T04:18:08;9.50;99.90
22734;DHT22;11534;51.994;5.692;2023-05-16T04:20:34;9.50;99.90
22734;DHT22;11534;51.994;5.692;2023-05-16T04:23:01;9.50;99.90
22734;DHT22;11534;51.994;5.692;2023-05-16T04:25:26;9.50;99.90
22734;DHT22;11534;51.994;5.692;2023-05-16T04:27:52;9.50;99.90
22734;DHT22;11534;51.994;5.692;2023-05-16T04:30:18;9.50;99.90
22734;DHT22;11534;51.994;5.692;2023-05-16T04:32:43;9.50;99.90
22734;DHT22;11534;51.994;5.692;2023-05-16T04:35:09;9.50;99.90
22734;DHT22;11534;51.994;5.692;2023-05-16T04:37:35;9.50;99.90
22734;DHT22;11534;51.994;5.692;2023-05-16T04:40:02;9.50;99.90
22734;DHT22;11534;51.994;5.692;2023-05-16T04:42:28;9.50;99.90
22734;DHT22;11534;51.994;5.692;2023-05-16T04:44:53;9.30;99.90
22734;DHT22;11534;51.994;5.692;2023-05-16T04:47:20;9.30;99.90
22734;DHT22;11534;51.994;5.692;2023-05-16T04:49:46;9.30;99.90
22734;DHT22;11534;51.994;5.692;2023-05-16T04:52:11;9.30;99.90
22734;DHT22;11534;51.994;5.692;2023-05-16T04:54:37;9.30;99.90
22734;DHT22;11534;51.994;5.692;2023-05-16T04:57:04;9.30;99.90
22734;DHT22;11534;51.994;5.692;2023-05-16T04:59:30;9.30;99.90
22734;DHT22;11534;51.994;5.692;2023-05-16T05:01:55;9.30;99.90
22734;DHT22;11534;51.994;5.692;2023-05-16T05:04:21;9.20;99.90
22734;DHT22;11534;51.994;5.692;2023-05-16T05:06:47;9.20;99.90
22734;DHT22;11534;51.994;5.692;2023-05-16T05:09:12;9.30;99.90
22734;DHT22;11534;51.994;5.692;2023-05-16T05:11:38;9.40;99.90
22734;DHT22;11534;51.994;5.692;2023-05-16T05:14:04;9.40;99.90
22734;DHT22;11534;51.994;5.692;2023-05-16T05:16:30;9.50;99.90
22734;DHT22;11534;51.994;5.692;2023-05-16T05:18:56;9.60;99.90
22734;DHT22;11534;51.994;5.692;2023-05-16T05:21:21;9.70;99.90
22734;DHT22;11534;51.994;5.692;2023-05-16T05:23:49;9.80;99.90
22734;DHT22;11534;51.994;5.692;2023-05-16T05:26:15;9.80;99.90
22734;DHT22;11534;51.994;5.692;2023-05-16T05:28:41;9.80;99.90
22734;DHT22;11534;51.994;5.692;2023-05-16T05:31:07;9.80;99.90
22734;DHT22;11534;51.994;5.692;2023-05-16T05:33:32;9.80;99.90
22734;DHT22;11534;51.994;5.692;2023-05-16T05:35:58;9.80;99.90
22734;DHT22;11534;51.994;5.692;2023-05-16T05:38:24;9.90;99.90
22734;DHT22;11534;51.994;5.692;2023-05-16T05:40:50;9.90;99.90
22734;DHT22;11534;51.994;5.692;2023-05-16T05:43:16;9.90;99.90
22734;DHT22;11534;51.994;5.692;2023-05-16T05:45:42;9.90;99.90
22734;DHT22;11534;51.994;5.692;2023-05-16T05:48:08;9.90;99.90
22734;DHT22;11534;51.994;5.692;2023-05-16T05:50:35;9.90;99.90
22734;DHT22;11534;51.994;5.692;2023-05-16T05:53:02;9.80;99.90
22734;DHT22;11534;51.994;5.692;2023-05-16T05:55:28;9.80;99.90
22734;DHT22;11534;51.994;5.692;2023-05-16T05:57:54;9.80;99.90
22734;DHT22;11534;51.994;5.692;2023-05-16T06:00:19;9.90;99.90
22734;DHT22;11534;51.994;5.692;2023-05-16T06:02:46;9.90;99.90
22734;DHT22;11534;51.994;5.692;2023-05-16T06:05:12;9.90;99.90
22734;DHT22;11534;51.994;5.692;2023-05-16T06:07:38;9.90;99.90
22734;DHT22;11534;51.994;5.692;2023-05-16T06:10:04;10.00;99.90
22734;DHT22;11534;51.994;5.692;2023-05-16T06:12:30;9.90;99.90
22734;DHT22;11534;51.994;5.692;2023-05-16T06:14:56;9.90;99.90
22734;DHT22;11534;51.994;5.692;2023-05-16T06:17:22;10.00;99.90
22734;DHT22;11534;51.994;5.692;2023-05-16T06:19:47;10.00;99.90
22734;DHT22;11534;51.994;5.692;2023-05-16T06:22:13;10.00;99.90
22734;DHT22;11534;51.994;5.692;2023-05-16T06:24:39;10.10;99.90
22734;DHT22;11534;51.994;5.692;2023-05-16T06:27:05;10.20;99.90
22734;DHT22;11534;51.994;5.692;2023-05-16T06:29:30;10.20;99.90
22734;DHT22;11534;51.994;5.692;2023-05-16T06:31:56;10.20;99.90
22734;DHT22;11534;51.994;5.692;2023-05-16T06:34:21;10.30;99.90
22734;DHT22;11534;51.994;5.692;2023-05-16T06:36:52;10.40;99.90
22734;DHT22;11534;51.994;5.692;2023-05-16T06:39:18;10.50;99.90
22734;DHT22;11534;51.994;5.692;2023-05-16T06:41:44;10.50;99.90
22734;DHT22;11534;51.994;5.692;2023-05-16T06:44:10;10.50;99.90
22734;DHT22;11534;51.994;5.692;2023-05-16T06:46:36;10.50;99.90
22734;DHT22;11534;51.994;5.692;2023-05-16T06:49:02;10.60;99.90
22734;DHT22;11534;51.994;5.692;2023-05-16T06:51:29;10.60;99.90
22734;DHT22;11534;51.994;5.692;2023-05-16T06:53:55;10.70;99.90
22734;DHT22;11534;51.994;5.692;2023-05-16T06:56:21;10.80;99.90
22734;DHT22;11534;51.994;5.692;2023-05-16T06:58:47;10.90;99.90
22734;DHT22;11534;51.994;5.692;2023-05-16T07:01:14;10.90;99.90
22734;DHT22;11534;51.994;5.692;2023-05-16T07:03:39;10.90;99.90
22734;DHT22;11534;51.994;5.692;2023-05-16T07:06:06;10.90;99.90
22734;DHT22;11534;51.994;5.692;2023-05-16T07:08:31;11.00;99.90
22734;DHT22;11534;51.994;5.692;2023-05-16T07:10:57;11.10;99.90
22734;DHT22;11534;51.994;5.692;2023-05-16T07:13:23;11.10;99.90
22734;DHT22;11534;51.994;5.692;2023-05-16T07:15:49;11.20;99.90
22734;DHT22;11534;51.994;5.692;2023-05-16T07:18:14;11.30;99.90
22734;DHT22;11534;51.994;5.692;2023-05-16T07:20:40;11.30;99.90
22734;DHT22;11534;51.994;5.692;2023-05-16T07:23:06;11.30;99.90
22734;DHT22;11534;51.994;5.692;2023-05-16T07:25:31;11.40;99.90
22734;DHT22;11534;51.994;5.692;2023-05-16T07:27:57;11.50;99.90
22734;DHT22;11534;51.994;5.692;2023-05-16T07:30:24;11.60;99.90
22734;DHT22;11534;51.994;5.692;2023-05-16T07:32:49;11.70;99.90
22734;DHT22;11534;51.994;5.692;2023-05-16T07:35:15;11.60;99.90
22734;DHT22;11534;51.994;5.692;2023-05-16T07:37:41;11.50;99.90
22734;DHT22;11534;51.994;5.692;2023-05-16T07:40:09;11.60;99.90
22734;DHT22;11534;51.994;5.692;2023-05-16T07:42:34;11.70;99.90
22734;DHT22;11534;51.994;5.692;2023-05-16T07:45:00;11.80;99.90
22734;DHT22;11534;51.994;5.692;2023-05-16T07:47:26;12.00;99.90
22734;DHT22;11534;51.994;5.692;2023-05-16T07:49:52;12.10;99.90
22734;DHT22;11534;51.994;5.692;2023-05-16T07:52:17;12.30;99.90
22734;DHT22;11534;51.994;5.692;2023-05-16T07:54:45;12.30;99.90
22734;DHT22;11534;51.994;5.692;2023-05-16T07:57:12;12.40;99.90
22734;DHT22;11534;51.994;5.692;2023-05-16T07:59:38;12.40;99.90
22734;DHT22;11534;51.994;5.692;2023-05-16T08:02:03;12.50;99.90
22734;DHT22;11534;51.994;5.692;2023-05-16T08:04:29;12.40;99.90
22734;DHT22;11534;51.994;5.692;2023-05-16T08:06:55;12.30;99.90
22734;DHT22;11534;51.994;5.692;2023-05-16T08:09:20;12.30;99.90
22734;DHT22;11534;51.994;5.692;2023-05-16T08:11:46;12.40;99.90
22734;DHT22;11534;51.994;5.692;2023-05-16T08:14:12;12.40;99.90
22734;DHT22;11534;51.994;5.692;2023-05-16T08:16:37;12.40;99.90
22734;DHT22;11534;51.994;5.692;2023-05-16T08:19:03;12.40;99.90
22734;DHT22;11534;51.994;5.692;2023-05-16T08:21:29;12.60;99.90
22734;DHT22;11534;51.994;5.692;2023-05-16T08:23:56;12.50;99.90
22734;DHT22;11534;51.994;5.692;2023-05-16T08:26:21;12.20;99.90
22734;DHT22;11534;51.994;5.692;2023-05-16T08:28:47;11.90;99.90
22734;DHT22;11534;51.994;5.692;2023-05-16T08:31:13;11.60;99.90
22734;DHT22;11534;51.994;5.692;2023-05-16T08:33:39;11.40;99.90
22734;DHT22;11534;51.994;5.692;2023-05-16T08:36:05;11.40;99.90
22734;DHT22;11534;51.994;5.692;2023-05-16T08:38:30;11.40;99.90
22734;DHT22;11534;51.994;5.692;2023-05-16T08:40:56;11.40;99.90
22734;DHT22;11534;51.994;5.692;2023-05-16T08:43:22;11.40;99.90
22734;DHT22;11534;51.994;5.692;2023-05-16T08:45:48;11.60;99.90
22734;DHT22;11534;51.994;5.692;2023-05-16T08:48:14;11.70;99.90
22734;DHT22;11534;51.994;5.692;2023-05-16T08:50:41;11.80;99.90
22734;DHT22;11534;51.994;5.692;2023-05-16T08:53:08;11.90;99.90
22734;DHT22;11534;51.994;5.692;2023-05-16T08:55:37;11.90;99.90
22734;DHT22;11534;51.994;5.692;2023-05-16T08:58:03;11.90;99.90
22734;DHT22;11534;51.994;5.692;2023-05-16T09:00:29;12.00;99.90
22734;DHT22;11534;51.994;5.692;2023-05-16T09:02:55;12.00;99.90
22734;DHT22;11534;51.994;5.692;2023-05-16T09:05:22;12.00;99.90
22734;DHT22;11534;51.994;5.692;2023-05-16T09:07:48;12.10;99.90
22734;DHT22;11534;51.994;5.692;2023-05-16T09:10:15;12.20;99.90
22734;DHT22;11534;51.994;5.692;2023-05-16T09:12:41;12.30;99.90
22734;DHT22;11534;51.994;5.692;2023-05-16T09:15:08;12.30;99.90
22734;DHT22;11534;51.994;5.692;2023-05-16T09:17:40;12.40;99.90
22734;DHT22;11534;51.994;5.692;2023-05-16T09:20:13;12.40;99.90
22734;DHT22;11534;51.994;5.692;2023-05-16T09:22:40;12.40;99.90
22734;DHT22;11534;51.994;5.692;2023-05-16T09:25:16;12.50;99.90
22734;DHT22;11534;51.994;5.692;2023-05-16T09:27:42;12.60;99.90
22734;DHT22;11534;51.994;5.692;2023-05-16T09:30:08;12.70;99.90
22734;DHT22;11534;51.994;5.692;2023-05-16T09:32:34;12.80;99.90
22734;DHT22;11534;51.994;5.692;2023-05-16T09:35:00;12.90;99.90
22734;DHT22;11534;51.994;5.692;2023-05-16T09:37:25;13.00;99.90
22734;DHT22;11534;51.994;5.692;2023-05-16T09:39:52;13.10;99.90
22734;DHT22;11534;51.994;5.692;2023-05-16T09:42:21;13.20;99.90
22734;DHT22;11534;51.994;5.692;2023-05-16T09:44:52;13.40;99.90
22734;DHT22;11534;51.994;5.692;2023-05-16T09:47:19;13.60;99.90
22734;DHT22;11534;51.994;5.692;2023-05-16T09:49:46;13.60;99.90
22734;DHT22;11534;51.994;5.692;2023-05-16T09:52:13;13.80;99.90
22734;DHT22;11534;51.994;5.692;2023-05-16T09:54:39;14.10;99.90
22734;DHT22;11534;51.994;5.692;2023-05-16T09:57:06;14.10;99.90
22734;DHT22;11534;51.994;5.692;2023-05-16T09:59:36;13.90;99.90
22734;DHT22;11534;51.994;5.692;2023-05-16T10:02:02;13.80;99.90
22734;DHT22;11534;51.994;5.692;2023-05-16T10:04:30;13.70;99.90
22734;DHT22;11534;51.994;5.692;2023-05-16T10:06:56;13.50;99.90
22734;DHT22;11534;51.994;5.692;2023-05-16T10:09:22;13.40;99.90
22734;DHT22;11534;51.994;5.692;2023-05-16T10:11:50;13.70;99.90
22734;DHT22;11534;51.994;5.692;2023-05-16T10:14:17;14.00;99.90
22734;DHT22;11534;51.994;5.692;2023-05-16T10:16:46;14.40;99.90
22734;DHT22;11534;51.994;5.692;2023-05-16T10:19:13;14.70;99.90
22734;DHT22;11534;51.994;5.692;2023-05-16T10:21:41;15.00;99.90
22734;DHT22;11534;51.994;5.692;2023-05-16T10:24:11;15.30;99.90
22734;DHT22;11534;51.994;5.692;2023-05-16T10:26:39;15.60;99.90
22734;DHT22;11534;51.994;5.692;2023-05-16T10:29:05;15.80;99.90
22734;DHT22;11534;51.994;5.692;2023-05-16T10:31:31;16.20;99.90
22734;DHT22;11534;51.994;5.692;2023-05-16T10:33:57;16.40;99.90
22734;DHT22;11534;51.994;5.692;2023-05-16T10:36:23;16.70;99.90
22734;DHT22;11534;51.994;5.692;2023-05-16T10:38:50;16.90;99.90
22734;DHT22;11534;51.994;5.692;2023-05-16T10:41:16;16.80;99.90
22734;DHT22;11534;51.994;5.692;2023-05-16T10:43:56;17.10;99.90
22734;DHT22;11534;51.994;5.692;2023-05-16T10:46:22;16.70;99.90
22734;DHT22;11534;51.994;5.692;2023-05-16T10:48:48;16.80;99.90
22734;DHT22;11534;51.994;5.692;2023-05-16T10:51:35;16.50;99.90
22734;DHT22;11534;51.994;5.692;2023-05-16T10:54:08;16.70;99.90
22734;DHT22;11534;51.994;5.692;2023-05-16T10:56:35;16.60;99.90
22734;DHT22;11534;51.994;5.692;2023-05-16T10:59:01;16.30;99.90
22734;DHT22;11534;51.994;5.692;2023-05-16T11:01:29;16.10;99.90
22734;DHT22;11534;51.994;5.692;2023-05-16T11:06:31;15.60;99.90
22734;DHT22;11534;51.994;5.692;2023-05-16T11:09:11;15.40;99.90
22734;DHT22;11534;51.994;5.692;2023-05-16T11:14:38;16.30;99.90
22734;DHT22;11534;51.994;5.692;2023-05-16T11:17:19;17.10;99.90
22734;DHT22;11534;51.994;5.692;2023-05-16T11:19:49;17.00;99.90
22734;DHT22;11534;51.994;5.692;2023-05-16T11:24:50;16.10;99.90
22734;DHT22;11534;51.994;5.692;2023-05-16T11:27:24;15.90;99.90
22734;DHT22;11534;51.994;5.692;2023-05-16T11:29:51;15.70;99.90
22734;DHT22;11534;51.994;5.692;2023-05-16T11:32:21;15.50;99.90
22734;DHT22;11534;51.994;5.692;2023-05-16T11:34:48;15.30;99.90
22734;DHT22;11534;51.994;5.692;2023-05-16T11:37:14;15.20;99.90
22734;DHT22;11534;51.994;5.692;2023-05-16T11:39:40;15.10;99.90
22734;DHT22;11534;51.994;5.692;2023-05-16T11:42:06;15.10;99.90
22734;DHT22;11534;51.994;5.692;2023-05-16T11:44:31;15.20;99.90
22734;DHT22;11534;51.994;5.692;2023-05-16T11:47:00;15.60;99.90
22734;DHT22;11534;51.994;5.692;2023-05-16T11:49:28;15.60;99.90
22734;DHT22;11534;51.994;5.692;2023-05-16T11:51:54;15.40;99.90
22734;DHT22;11534;51.994;5.692;2023-05-16T11:54:22;15.20;99.90
22734;DHT22;11534;51.994;5.692;2023-05-16T11:56:51;14.90;99.90
22734;DHT22;11534;51.994;5.692;2023-05-16T11:59:18;14.60;99.90
22734;DHT22;11534;51.994;5.692;2023-05-16T12:01:43;14.30;99.90
22734;DHT22;11534;51.994;5.692;2023-05-16T12:04:13;14.20;99.90
22734;DHT22;11534;51.994;5.692;2023-05-16T12:06:40;14.30;99.90
22734;DHT22;11534;51.994;5.692;2023-05-16T12:09:11;14.40;99.90
22734;DHT22;11534;51.994;5.692;2023-05-16T12:11:44;14.50;99.90
22734;DHT22;11534;51.994;5.692;2023-05-16T12:14:11;14.60;99.90
22734;DHT22;11534;51.994;5.692;2023-05-16T12:16:37;14.70;99.90
22734;DHT22;11534;51.994;5.692;2023-05-16T12:19:07;14.80;99.90
22734;DHT22;11534;51.994;5.692;2023-05-16T12:21:34;14.90;99.90
22734;DHT22;11534;51.994;5.692;2023-05-16T12:24:01;15.00;99.90
22734;DHT22;11534;51.994;5.692;2023-05-16T12:26:29;14.90;99.90
22734;DHT22;11534;51.994;5.692;2023-05-16T12:29:02;14.70;99.90
22734;DHT22;11534;51.994;5.692;2023-05-16T12:31:30;14.60;99.90
22734;DHT22;11534;51.994;5.692;2023-05-16T12:34:00;14.50;99.90
22734;DHT22;11534;51.994;5.692;2023-05-16T12:36:31;14.30;99.90
22734;DHT22;11534;51.994;5.692;2023-05-16T12:39:00;14.20;99.90
22734;DHT22;11534;51.994;5.692;2023-05-16T12:41:29;14.10;99.90
22734;DHT22;11534;51.994;5.692;2023-05-16T12:44:22;14.10;99.90
22734;DHT22;11534;51.994;5.692;2023-05-16T12:46:50;14.00;99.90
22734;DHT22;11534;51.994;5.692;2023-05-16T12:49:22;13.90;99.90
22734;DHT22;11534;51.994;5.692;2023-05-16T12:51:49;13.90;99.90
22734;DHT22;11534;51.994;5.692;2023-05-16T12:54:15;13.80;99.90
22734;DHT22;11534;51.994;5.692;2023-05-16T12:56:41;13.70;99.90
22734;DHT22;11534;51.994;5.692;2023-05-16T12:59:07;13.70;99.90
22734;DHT22;11534;51.994;5.692;2023-05-16T13:01:34;13.60;99.90
22734;DHT22;11534;51.994;5.692;2023-05-16T13:04:00;13.40;99.90
22734;DHT22;11534;51.994;5.692;2023-05-16T13:06:26;13.40;99.90
22734;DHT22;11534;51.994;5.692;2023-05-16T13:08:52;13.40;99.90
22734;DHT22;11534;51.994;5.692;2023-05-16T13:11:18;13.50;99.90
22734;DHT22;11534;51.994;5.692;2023-05-16T13:13:44;13.70;99.90
22734;DHT22;11534;51.994;5.692;2023-05-16T13:16:10;13.90;99.90
22734;DHT22;11534;51.994;5.692;2023-05-16T13:18:36;13.90;99.90
22734;DHT22;11534;51.994;5.692;2023-05-16T13:21:02;14.10;99.90
22734;DHT22;11534;51.994;5.692;2023-05-16T13:23:30;14.30;99.90
22734;DHT22;11534;51.994;5.692;2023-05-16T13:25:58;14.40;99.90
22734;DHT22;11534;51.994;5.692;2023-05-16T13:28:24;14.50;99.90
22734;DHT22;11534;51.994;5.692;2023-05-16T13:30:50;15.10;99.90
22734;DHT22;11534;51.994;5.692;2023-05-16T13:33:16;15.30;99.90
22734;DHT22;11534;51.994;5.692;2023-05-16T13:35:42;15.10;99.90
22734;DHT22;11534;51.994;5.692;2023-05-16T13:38:08;14.80;99.90
22734;DHT22;11534;51.994;5.692;2023-05-16T13:40:34;14.70;99.90
22734;DHT22;11534;51.994;5.692;2023-05-16T13:43:00;14.50;99.90
22734;DHT22;11534;51.994;5.692;2023-05-16T13:45:26;14.30;99.90
22734;DHT22;11534;51.994;5.692;2023-05-16T13:47:52;14.20;99.90
22734;DHT22;11534;51.994;5.692;2023-05-16T13:50:18;14.10;99.90
22734;DHT22;11534;51.994;5.692;2023-05-16T13:52:45;14.10;99.90
22734;DHT22;11534;51.994;5.692;2023-05-16T13:55:11;14.10;99.90
22734;DHT22;11534;51.994;5.692;2023-05-16T13:57:37;14.10;99.90
22734;DHT22;11534;51.994;5.692;2023-05-16T14:00:04;14.20;99.90
22734;DHT22;11534;51.994;5.692;2023-05-16T14:02:40;14.30;99.90
22734;DHT22;11534;51.994;5.692;2023-05-16T14:05:07;14.30;99.90
22734;DHT22;11534;51.994;5.692;2023-05-16T14:07:34;14.20;99.90
22734;DHT22;11534;51.994;5.692;2023-05-16T14:10:00;14.30;99.90
22734;DHT22;11534;51.994;5.692;2023-05-16T14:12:26;14.10;99.90
22734;DHT22;11534;51.994;5.692;2023-05-16T14:14:51;14.10;99.90
22734;DHT22;11534;51.994;5.692;2023-05-16T14:17:19;14.10;99.90
22734;DHT22;11534;51.994;5.692;2023-05-16T14:19:44;14.10;99.90
22734;DHT22;11534;51.994;5.692;2023-05-16T14:22:10;14.40;99.90
22734;DHT22;11534;51.994;5.692;2023-05-16T14:24:36;14.90;99.90
22734;DHT22;11534;51.994;5.692;2023-05-16T14:27:01;14.90;99.90
22734;DHT22;11534;51.994;5.692;2023-05-16T14:29:27;14.80;99.90
22734;DHT22;11534;51.994;5.692;2023-05-16T14:31:53;14.60;99.90
22734;DHT22;11534;51.994;5.692;2023-05-16T14:34:18;14.50;99.90
22734;DHT22;11534;51.994;5.692;2023-05-16T14:36:44;14.40;99.90
22734;DHT22;11534;51.994;5.692;2023-05-16T14:39:10;14.30;99.90
22734;DHT22;11534;51.994;5.692;2023-05-16T14:41:36;14.20;99.90
22734;DHT22;11534;51.994;5.692;2023-05-16T14:44:02;14.10;99.90
22734;DHT22;11534;51.994;5.692;2023-05-16T14:46:27;14.10;99.90
22734;DHT22;11534;51.994;5.692;2023-05-16T14:48:53;14.00;99.90
22734;DHT22;11534;51.994;5.692;2023-05-16T14:51:19;14.00;99.90
22734;DHT22;11534;51.994;5.692;2023-05-16T14:53:44;14.00;99.90
22734;DHT22;11534;51.994;5.692;2023-05-16T14:56:10;14.10;99.90
22734;DHT22;11534;51.994;5.692;2023-05-16T14:58:36;14.10;99.90
22734;DHT22;11534;51.994;5.692;2023-05-16T15:01:01;14.10;99.90
22734;DHT22;11534;51.994;5.692;2023-05-16T15:03:27;14.00;99.90
22734;DHT22;11534;51.994;5.692;2023-05-16T15:05:52;14.00;99.90
22734;DHT22;11534;51.994;5.692;2023-05-16T15:08:19;13.90;99.90
22734;DHT22;11534;51.994;5.692;2023-05-16T15:10:45;13.90;99.90
22734;DHT22;11534;51.994;5.692;2023-05-16T15:13:10;13.90;99.90
22734;DHT22;11534;51.994;5.692;2023-05-16T15:15:36;13.90;99.90
22734;DHT22;11534;51.994;5.692;2023-05-16T15:18:03;13.90;99.90
22734;DHT22;11534;51.994;5.692;2023-05-16T15:20:28;14.00;99.90
22734;DHT22;11534;51.994;5.692;2023-05-16T15:22:54;13.90;99.90
22734;DHT22;11534;51.994;5.692;2023-05-16T15:25:20;13.90;99.90
22734;DHT22;11534;51.994;5.692;2023-05-16T15:27:46;13.80;99.90
22734;DHT22;11534;51.994;5.692;2023-05-16T15:30:11;13.80;99.90
22734;DHT22;11534;51.994;5.692;2023-05-16T15:32:37;13.70;99.90
22734;DHT22;11534;51.994;5.692;2023-05-16T15:35:03;13.70;99.90
22734;DHT22;11534;51.994;5.692;2023-05-16T15:37:29;13.70;99.90
22734;DHT22;11534;51.994;5.692;2023-05-16T15:39:55;13.70;99.90
22734;DHT22;11534;51.994;5.692;2023-05-16T15:42:20;13.70;99.90
22734;DHT22;11534;51.994;5.692;2023-05-16T15:44:46;13.70;99.90
22734;DHT22;11534;51.994;5.692;2023-05-16T15:47:12;13.70;99.90
22734;DHT22;11534;51.994;5.692;2023-05-16T15:49:38;13.70;99.90
22734;DHT22;11534;51.994;5.692;2023-05-16T15:52:04;13.70;99.90